Time;durP1;ratioP1;P1;durP2;ratioP2;P2;SDS_P1;SDS_P2;PMS_P1;PMS_P2;Temp;Humidity;BMP_temperature;BMP_pressure;BME280_temperature;BME280_humidity;BME280_pressure;Samples;Min_cycle;Max_cycle;Signal;HPM_P1;HPM_P2
2023/08/29 00:02:19;;;;;;;;;;;21.60;68.10;;;;;;5040582;28;899;-69
2023/08/29 00:04:44;;;;;;;;;;;21.70;68.20;;;;;;5050896;28;888;-68
2023/08/29 00:07:10;;;;;;;;;;;21.60;68.10;;;;;;5050086;28;846;-69
2023/08/29 00:09:35;;;;;;;;;;;21.70;68.20;;;;;;5049438;28;1306;-69
2023/08/29 00:12:01;;;;;;;;;;;21.70;68.20;;;;;;5051783;28;1681;-69
2023/08/29 00:14:26;;;;;;;;;;;21.70;68.20;;;;;;5053068;28;1964;-68
2023/08/29 00:16:51;;;;;;;;;;;21.70;68.20;;;;;;5043503;28;1326;-69
2023/08/29 00:19:17;;;;;;;;;;;21.60;68.20;;;;;;5053786;28;1719;-68
2023/08/29 00:21:42;;;;;;;;;;;21.70;68.30;;;;;;5053553;28;792;-68
2023/08/29 00:24:08;;;;;;;;;;;21.70;68.30;;;;;;5047513;28;951;-68
2023/08/29 00:26:34;;;;;;;;;;;21.70;68.30;;;;;;5048346;28;848;-68
2023/08/29 00:28:59;;;;;;;;;;;21.60;68.20;;;;;;5052929;28;1346;-68
2023/08/29 00:31:25;;;;;;;;;;;21.70;68.30;;;;;;5053511;28;1192;-68
2023/08/29 00:33:52;;;;;;;;;;;21.70;68.30;;;;;;5053977;28;1925;-68
2023/08/29 00:36:17;;;;;;;;;;;21.70;68.30;;;;;;5049143;28;924;-68
2023/08/29 00:38:43;;;;;;;;;;;21.60;68.30;;;;;;5052059;28;1037;-68
2023/08/29 00:41:10;;;;;;;;;;;21.60;68.30;;;;;;5051951;28;1271;-68
2023/08/29 00:43:36;;;;;;;;;;;21.70;68.40;;;;;;5052384;28;1285;-68
2023/08/29 00:46:02;;;;;;;;;;;21.70;68.40;;;;;;5052392;28;999;-67
2023/08/29 00:48:27;;;;;;;;;;;21.70;68.40;;;;;;5047187;28;816;-68
2023/08/29 00:50:53;;;;;;;;;;;21.70;68.40;;;;;;5044209;28;1350;-67
2023/08/29 00:53:19;;;;;;;;;;;21.70;68.40;;;;;;5052517;28;851;-68
2023/08/29 00:55:44;;;;;;;;;;;21.70;68.40;;;;;;5048004;28;1940;-68
2023/08/29 00:58:10;;;;;;;;;;;21.70;68.50;;;;;;5051577;28;891;-69
2023/08/29 01:00:35;;;;;;;;;;;21.70;68.40;;;;;;5047522;28;1258;-69
2023/08/29 01:03:01;;;;;;;;;;;21.60;68.40;;;;;;5044849;28;1547;-68
2023/08/29 01:05:28;;;;;;;;;;;21.70;68.40;;;;;;5051972;28;1343;-68
2023/08/29 01:07:58;;;;;;;;;;;21.70;68.40;;;;;;5051716;28;823;-68
2023/08/29 01:10:43;;;;;;;;;;;21.60;68.40;;;;;;5051925;28;1674;-68
2023/08/29 01:13:22;;;;;;;;;;;21.60;68.40;;;;;;5051831;28;1199;-68
2023/08/29 01:15:48;;;;;;;;;;;21.60;68.40;;;;;;5045474;28;1926;-68
2023/08/29 01:18:13;;;;;;;;;;;21.70;68.50;;;;;;5045058;28;1366;-68
2023/08/29 01:20:39;;;;;;;;;;;21.60;68.40;;;;;;5045190;28;1377;-68
2023/08/29 01:23:11;;;;;;;;;;;21.70;68.50;;;;;;5054840;28;1666;-68
2023/08/29 01:25:39;;;;;;;;;;;21.60;68.40;;;;;;5051392;28;895;-68
2023/08/29 01:28:05;;;;;;;;;;;21.70;68.60;;;;;;5051128;28;1363;-68
2023/08/29 01:30:31;;;;;;;;;;;21.70;68.50;;;;;;5046699;28;1298;-68
2023/08/29 01:32:58;;;;;;;;;;;21.70;68.50;;;;;;5054148;28;820;-69
2023/08/29 01:35:23;;;;;;;;;;;21.70;68.60;;;;;;5050296;28;1894;-68
2023/08/29 01:37:49;;;;;;;;;;;21.60;68.50;;;;;;5048030;28;820;-68
2023/08/29 01:40:14;;;;;;;;;;;21.70;68.50;;;;;;5052117;28;1321;-69
2023/08/29 01:42:40;;;;;;;;;;;21.60;68.50;;;;;;5051261;28;1711;-68
2023/08/29 01:45:06;;;;;;;;;;;21.60;68.60;;;;;;5052680;28;804;-68
2023/08/29 01:47:31;;;;;;;;;;;21.60;68.50;;;;;;5051479;28;1278;-68
2023/08/29 01:49:57;;;;;;;;;;;21.60;68.50;;;;;;5052010;28;1291;-69
2023/08/29 01:52:22;;;;;;;;;;;21.70;68.60;;;;;;5046043;28;903;-68
2023/08/29 01:54:48;;;;;;;;;;;21.70;68.70;;;;;;5046664;28;1968;-69
2023/08/29 01:57:13;;;;;;;;;;;21.60;68.50;;;;;;5053221;28;819;-69
2023/08/29 01:59:39;;;;;;;;;;;21.70;68.70;;;;;;5041824;28;1405;-69
2023/08/29 02:02:04;;;;;;;;;;;21.70;68.70;;;;;;5050178;28;879;-68
2023/08/29 02:04:30;;;;;;;;;;;21.70;68.70;;;;;;5052176;28;1093;-68
2023/08/29 02:06:55;;;;;;;;;;;21.70;68.70;;;;;;5052230;28;844;-68
2023/08/29 02:09:21;;;;;;;;;;;21.60;68.60;;;;;;5051350;28;1271;-68
2023/08/29 02:11:46;;;;;;;;;;;21.60;68.60;;;;;;5050300;28;863;-69
2023/08/29 02:14:12;;;;;;;;;;;21.70;68.70;;;;;;5051873;28;1899;-68
2023/08/29 02:16:38;;;;;;;;;;;21.60;68.70;;;;;;5052159;28;856;-68
2023/08/29 02:19:04;;;;;;;;;;;21.70;68.80;;;;;;5045243;28;1439;-68
2023/08/29 02:21:29;;;;;;;;;;;21.70;68.80;;;;;;5044682;28;958;-69
2023/08/29 02:23:54;;;;;;;;;;;21.70;68.80;;;;;;5050723;28;1068;-69
2023/08/29 02:26:20;;;;;;;;;;;21.70;68.80;;;;;;5051166;28;788;-69
2023/08/29 02:28:45;;;;;;;;;;;21.70;68.80;;;;;;5050254;28;1053;-70
2023/08/29 02:31:11;;;;;;;;;;;21.70;68.70;;;;;;5051108;28;1251;-68
2023/08/29 02:33:37;;;;;;;;;;;21.60;68.70;;;;;;5049585;28;879;-69
2023/08/29 02:36:04;;;;;;;;;;;21.70;68.80;;;;;;5050973;28;1906;-69
2023/08/29 02:38:30;;;;;;;;;;;21.60;68.70;;;;;;5050327;28;893;-69
2023/08/29 02:40:55;;;;;;;;;;;21.70;68.80;;;;;;5050831;28;1374;-68
2023/08/29 02:43:21;;;;;;;;;;;21.60;68.80;;;;;;5050083;28;1348;-68
2023/08/29 02:45:46;;;;;;;;;;;21.60;68.80;;;;;;5050549;28;856;-68
2023/08/29 02:48:12;;;;;;;;;;;21.70;68.80;;;;;;5049736;28;900;-69
2023/08/29 02:50:38;;;;;;;;;;;21.70;68.80;;;;;;5050190;28;1240;-69
2023/08/29 02:53:03;;;;;;;;;;;21.70;68.90;;;;;;5050180;28;915;-68
2023/08/29 02:55:29;;;;;;;;;;;21.60;68.80;;;;;;5049527;28;1902;-68
2023/08/29 02:57:55;;;;;;;;;;;21.70;68.80;;;;;;5045110;28;889;-69
2023/08/29 03:00:20;;;;;;;;;;;21.60;68.80;;;;;;5045234;28;1316;-69
2023/08/29 03:02:45;;;;;;;;;;;21.70;68.90;;;;;;5050988;28;779;-68
2023/08/29 03:05:11;;;;;;;;;;;21.70;68.80;;;;;;5049756;28;846;-68
2023/08/29 03:07:37;;;;;;;;;;;21.70;68.80;;;;;;5048482;28;926;-68
2023/08/29 03:10:03;;;;;;;;;;;21.70;68.90;;;;;;5048296;28;1783;-69
2023/08/29 03:12:28;;;;;;;;;;;21.70;68.90;;;;;;5050006;28;895;-68
2023/08/29 03:14:54;;;;;;;;;;;21.70;68.90;;;;;;5049902;28;1955;-69
2023/08/29 03:17:19;;;;;;;;;;;21.70;68.90;;;;;;5050105;28;903;-68
2023/08/29 03:19:46;;;;;;;;;;;21.60;68.80;;;;;;5049036;28;1361;-68
2023/08/29 03:22:11;;;;;;;;;;;21.70;68.90;;;;;;5044174;28;903;-69
2023/08/29 03:24:37;;;;;;;;;;;21.70;68.90;;;;;;5049496;28;816;-69
2023/08/29 03:27:03;;;;;;;;;;;21.70;68.90;;;;;;5049841;28;1255;-68
2023/08/29 03:29:28;;;;;;;;;;;21.70;68.90;;;;;;5049169;28;1232;-68
2023/08/29 03:31:54;;;;;;;;;;;21.70;69.00;;;;;;5049610;28;891;-68
2023/08/29 03:34:19;;;;;;;;;;;21.60;68.90;;;;;;5049719;28;1906;-68
2023/08/29 03:36:44;;;;;;;;;;;21.70;69.70;;;;;;5050012;28;970;-69
2023/08/29 03:39:10;;;;;;;;;;;21.70;68.90;;;;;;5048896;28;1291;-69
2023/08/29 03:41:36;;;;;;;;;;;21.70;69.00;;;;;;5049916;28;866;-69
2023/08/29 03:44:03;;;;;;;;;;;21.60;68.90;;;;;;5050218;28;1312;-69
2023/08/29 03:46:28;;;;;;;;;;;21.70;69.00;;;;;;5044555;28;875;-69
2023/08/29 03:48:54;;;;;;;;;;;21.60;68.90;;;;;;5053162;28;871;-69
2023/08/29 03:51:19;;;;;;;;;;;21.70;69.00;;;;;;5053412;28;1225;-68
2023/08/29 03:53:45;;;;;;;;;;;21.60;68.90;;;;;;5053432;28;860;-69
2023/08/29 03:56:11;;;;;;;;;;;21.60;68.90;;;;;;5053730;28;832;-69
2023/08/29 03:58:36;;;;;;;;;;;21.70;69.00;;;;;;5044027;28;906;-69
2023/08/29 04:01:03;;;;;;;;;;;21.70;69.00;;;;;;5053345;28;1341;-69
2023/08/29 04:03:30;;;;;;;;;;;21.70;69.00;;;;;;5053119;28;832;-69
2023/08/29 04:05:56;;;;;;;;;;;21.70;69.00;;;;;;5053133;28;812;-69
2023/08/29 04:08:21;;;;;;;;;;;21.70;69.00;;;;;;5052269;28;890;-69
2023/08/29 04:10:47;;;;;;;;;;;21.60;69.00;;;;;;5052915;28;1287;-69
2023/08/29 04:13:12;;;;;;;;;;;21.60;69.00;;;;;;5053667;28;782;-68
2023/08/29 04:15:38;;;;;;;;;;;21.60;69.00;;;;;;5052997;28;1898;-69
2023/08/29 04:18:03;;;;;;;;;;;21.60;69.00;;;;;;5052319;28;847;-69
2023/08/29 04:20:29;;;;;;;;;;;21.70;69.80;;;;;;5042486;28;1463;-68
2023/08/29 04:22:55;;;;;;;;;;;21.70;69.10;;;;;;5052911;28;863;-69
2023/08/29 04:25:20;;;;;;;;;;;21.70;69.10;;;;;;5053030;28;898;-68
2023/08/29 04:27:47;;;;;;;;;;;21.60;69.70;;;;;;5052331;28;1367;-68
2023/08/29 04:30:13;;;;;;;;;;;21.70;69.10;;;;;;5052567;28;1373;-69
2023/08/29 04:32:38;;;;;;;;;;;21.70;69.10;;;;;;5052684;28;824;-69
2023/08/29 04:35:06;;;;;;;;;;;21.60;69.10;;;;;;5046172;28;1938;-69
2023/08/29 04:37:34;;;;;;;;;;;21.70;69.10;;;;;;5044495;28;1549;-69
2023/08/29 04:40:00;;;;;;;;;;;21.60;69.10;;;;;;5049486;28;1302;-68
2023/08/29 04:42:26;;;;;;;;;;;21.60;69.10;;;;;;5043039;28;1388;-68
2023/08/29 04:44:53;;;;;;;;;;;21.60;69.10;;;;;;5052518;28;1398;-69
2023/08/29 04:47:22;;;;;;;;;;;21.70;69.10;;;;;;5051284;28;868;-68
2023/08/29 04:49:47;;;;;;;;;;;21.70;69.10;;;;;;5051610;28;1848;-69
2023/08/29 04:52:13;;;;;;;;;;;21.70;69.20;;;;;;5052604;28;820;-69
2023/08/29 04:54:38;;;;;;;;;;;21.70;69.20;;;;;;5051951;28;1918;-69
2023/08/29 04:57:04;;;;;;;;;;;21.70;69.20;;;;;;5051633;28;830;-68
2023/08/29 04:59:29;;;;;;;;;;;21.70;69.10;;;;;;5051533;28;1249;-69
2023/08/29 05:01:55;;;;;;;;;;;21.60;69.10;;;;;;5025584;28;4557;-68
2023/08/29 05:04:20;;;;;;;;;;;21.70;69.20;;;;;;5049591;28;1989;-69
2023/08/29 05:06:46;;;;;;;;;;;21.60;69.10;;;;;;5042291;28;1457;-69
2023/08/29 05:09:11;;;;;;;;;;;21.70;69.20;;;;;;5050321;28;2339;-69
2023/08/29 05:11:37;;;;;;;;;;;21.60;69.10;;;;;;5050782;28;1225;-69
2023/08/29 05:14:02;;;;;;;;;;;21.60;69.10;;;;;;5051040;28;1914;-69
2023/08/29 05:16:28;;;;;;;;;;;21.70;69.50;;;;;;5050894;28;915;-69
2023/08/29 05:18:53;;;;;;;;;;;21.70;69.20;;;;;;5049995;28;2102;-69
2023/08/29 05:21:19;;;;;;;;;;;21.70;69.30;;;;;;5050755;28;1295;-68
2023/08/29 05:23:44;;;;;;;;;;;21.70;69.20;;;;;;5051051;28;1093;-68
2023/08/29 05:26:10;;;;;;;;;;;21.70;69.30;;;;;;5044825;28;1681;-66
2023/08/29 05:28:35;;;;;;;;;;;21.70;69.20;;;;;;5050803;28;1334;-67
2023/08/29 05:31:01;;;;;;;;;;;21.60;69.20;;;;;;5050315;28;4351;-69
2023/08/29 05:33:26;;;;;;;;;;;21.70;69.30;;;;;;5052024;28;1409;-68
2023/08/29 05:35:51;;;;;;;;;;;21.70;69.20;;;;;;5051288;28;1975;-68
2023/08/29 05:38:17;;;;;;;;;;;21.70;69.20;;;;;;5050564;28;924;-68
2023/08/29 05:40:42;;;;;;;;;;;21.70;70.00;;;;;;5051331;28;1372;-68
2023/08/29 05:43:08;;;;;;;;;;;21.60;69.20;;;;;;5051700;28;990;-68
2023/08/29 05:45:33;;;;;;;;;;;21.70;69.30;;;;;;5051202;28;875;-68
2023/08/29 05:47:59;;;;;;;;;;;21.70;69.30;;;;;;5039237;28;1693;-67
2023/08/29 05:50:24;;;;;;;;;;;21.70;69.30;;;;;;5049830;28;1267;-67
2023/08/29 05:52:50;;;;;;;;;;;21.70;69.20;;;;;;5054996;28;1131;-67
2023/08/29 05:55:15;;;;;;;;;;;21.70;69.30;;;;;;5050401;28;1902;-67
2023/08/29 05:57:41;;;;;;;;;;;21.70;69.30;;;;;;5050608;28;1218;-67
2023/08/29 06:00:10;;;;;;;;;;;21.70;69.30;;;;;;5042230;28;1272;-68
2023/08/29 06:02:35;;;;;;;;;;;21.60;69.20;;;;;;5048781;28;816;-70
2023/08/29 06:05:01;;;;;;;;;;;21.60;69.20;;;;;;5049102;28;1313;-68
2023/08/29 06:07:26;;;;;;;;;;;21.60;69.20;;;;;;5050343;28;796;-68
2023/08/29 06:09:52;;;;;;;;;;;21.70;69.30;;;;;;5049435;28;1327;-68
2023/08/29 06:12:17;;;;;;;;;;;21.70;69.30;;;;;;5050007;28;865;-68
2023/08/29 06:14:43;;;;;;;;;;;21.70;69.30;;;;;;5049945;28;1910;-69
2023/08/29 06:17:08;;;;;;;;;;;21.70;69.30;;;;;;5049814;28;1054;-68
2023/08/29 06:19:34;;;;;;;;;;;21.70;69.30;;;;;;5049598;28;1323;-68
2023/08/29 06:21:59;;;;;;;;;;;21.60;69.20;;;;;;5049852;28;836;-69
2023/08/29 06:24:24;;;;;;;;;;;21.70;69.30;;;;;;5050386;28;820;-68
2023/08/29 06:26:50;;;;;;;;;;;21.60;69.20;;;;;;5049776;28;811;-68
2023/08/29 06:29:16;;;;;;;;;;;21.60;69.40;;;;;;5049028;28;1269;-69
2023/08/29 06:31:42;;;;;;;;;;;21.60;69.30;;;;;;5044590;28;1059;-67
2023/08/29 06:34:07;;;;;;;;;;;21.60;69.30;;;;;;5049775;28;1910;-67
2023/08/29 06:36:33;;;;;;;;;;;21.60;69.30;;;;;;5049770;28;1049;-67
2023/08/29 06:38:58;;;;;;;;;;;21.60;69.30;;;;;;5048277;28;1303;-68
2023/08/29 06:41:24;;;;;;;;;;;21.70;69.40;;;;;;5049379;28;943;-68
2023/08/29 06:43:49;;;;;;;;;;;21.70;69.40;;;;;;5038647;28;1031;-67
2023/08/29 06:46:15;;;;;;;;;;;21.70;69.40;;;;;;5050422;28;781;-67
2023/08/29 06:48:43;;;;;;;;;;;21.70;69.40;;;;;;5044558;28;808;-67
2023/08/29 06:51:09;;;;;;;;;;;21.60;69.30;;;;;;5049689;28;1333;-67
2023/08/29 06:53:34;;;;;;;;;;;21.70;69.40;;;;;;5050421;28;835;-67
2023/08/29 06:56:00;;;;;;;;;;;21.70;69.40;;;;;;5050265;28;1894;-67
2023/08/29 06:58:25;;;;;;;;;;;21.70;69.40;;;;;;5040710;28;900;-67
2023/08/29 07:00:54;;;;;;;;;;;21.70;69.50;;;;;;5050087;28;1314;-67
2023/08/29 07:03:19;;;;;;;;;;;21.60;69.40;;;;;;5049768;28;858;-67
2023/08/29 07:05:45;;;;;;;;;;;21.70;69.40;;;;;;5049759;28;785;-67
2023/08/29 07:08:10;;;;;;;;;;;21.60;69.40;;;;;;5046256;28;805;-67
2023/08/29 07:10:36;;;;;;;;;;;21.70;69.50;;;;;;5050550;28;1325;-67
2023/08/29 07:13:01;;;;;;;;;;;21.60;69.40;;;;;;5050276;28;1660;-67
2023/08/29 07:15:26;;;;;;;;;;;21.60;69.40;;;;;;5050660;28;1961;-67
2023/08/29 07:17:53;;;;;;;;;;;21.60;69.40;;;;;;5049615;28;880;-67
2023/08/29 07:20:19;;;;;;;;;;;21.60;69.40;;;;;;5052252;28;1381;-67
2023/08/29 07:22:45;;;;;;;;;;;21.60;69.40;;;;;;5056653;28;871;-67
2023/08/29 07:25:11;;;;;;;;;;;21.60;69.40;;;;;;5056515;28;935;-67
2023/08/29 07:27:36;;;;;;;;;;;21.70;69.50;;;;;;5056546;28;1350;-67
2023/08/29 07:30:03;;;;;;;;;;;21.60;69.40;;;;;;5055662;28;1389;-67
2023/08/29 07:32:30;;;;;;;;;;;21.60;69.50;;;;;;5056236;28;892;-67
2023/08/29 07:34:55;;;;;;;;;;;21.70;69.50;;;;;;5049165;28;1968;-67
2023/08/29 07:37:21;;;;;;;;;;;21.70;70.30;;;;;;5055144;28;1207;-67
2023/08/29 07:39:46;;;;;;;;;;;21.70;69.50;;;;;;5055754;28;1370;-67
2023/08/29 07:42:12;;;;;;;;;;;21.70;69.50;;;;;;5056374;28;1354;-67
2023/08/29 07:44:37;;;;;;;;;;;21.70;69.50;;;;;;5056553;28;888;-67
2023/08/29 07:47:03;;;;;;;;;;;21.70;69.50;;;;;;5055969;28;898;-67
2023/08/29 07:49:28;;;;;;;;;;;21.70;69.50;;;;;;5055554;28;1337;-67
2023/08/29 07:51:55;;;;;;;;;;;21.60;69.40;;;;;;5056416;28;892;-67
2023/08/29 07:54:20;;;;;;;;;;;21.70;69.50;;;;;;5056192;28;1953;-67
2023/08/29 07:56:46;;;;;;;;;;;21.70;69.60;;;;;;5056249;28;1436;-67
2023/08/29 07:59:11;;;;;;;;;;;21.70;70.30;;;;;;5055479;28;1285;-67
2023/08/29 08:01:37;;;;;;;;;;;21.70;69.60;;;;;;5047977;28;875;-67
2023/08/29 08:04:03;;;;;;;;;;;21.70;69.60;;;;;;5056537;28;870;-67
2023/08/29 08:06:29;;;;;;;;;;;21.70;69.60;;;;;;5048766;28;887;-67
2023/08/29 08:08:56;;;;;;;;;;;21.70;69.60;;;;;;5055409;28;1361;-66
2023/08/29 08:11:21;;;;;;;;;;;21.70;69.60;;;;;;5056109;28;1223;-67
2023/08/29 08:13:48;;;;;;;;;;;21.60;69.60;;;;;;5045920;28;864;-67
2023/08/29 08:16:14;;;;;;;;;;;21.60;69.50;;;;;;5055921;28;1975;-67
2023/08/29 08:18:39;;;;;;;;;;;21.60;69.60;;;;;;5050089;28;1027;-67
2023/08/29 08:21:05;;;;;;;;;;;21.60;69.60;;;;;;5055892;28;1294;-67
2023/08/29 08:23:30;;;;;;;;;;;21.70;69.60;;;;;;5059381;28;1407;-67
2023/08/29 08:25:56;;;;;;;;;;;21.60;69.60;;;;;;5055992;28;1038;-68
2023/08/29 08:28:21;;;;;;;;;;;21.70;69.60;;;;;;5055144;28;1026;-67
2023/08/29 08:30:47;;;;;;;;;;;21.60;69.60;;;;;;5055791;28;1406;-67
2023/08/29 08:33:13;;;;;;;;;;;21.70;69.60;;;;;;5052136;28;994;-67
2023/08/29 08:35:38;;;;;;;;;;;21.70;69.60;;;;;;5052275;28;1906;-67
2023/08/29 08:38:07;;;;;;;;;;;21.70;69.70;;;;;;5052318;28;828;-67
2023/08/29 08:40:41;;;;;;;;;;;21.70;69.70;;;;;;5051708;28;1273;-67
2023/08/29 08:43:07;;;;;;;;;;;21.60;69.60;;;;;;5046176;28;1299;-67
2023/08/29 08:45:32;;;;;;;;;;;21.60;69.60;;;;;;5042948;28;868;-67
2023/08/29 08:47:57;;;;;;;;;;;21.70;69.60;;;;;;5051977;28;950;-67
2023/08/29 08:50:23;;;;;;;;;;;21.70;69.70;;;;;;5046861;28;1382;-67
2023/08/29 08:52:49;;;;;;;;;;;21.70;69.70;;;;;;5052477;28;876;-67
2023/08/29 08:55:14;;;;;;;;;;;21.70;69.70;;;;;;5044053;28;1898;-66
2023/08/29 08:57:41;;;;;;;;;;;21.60;69.60;;;;;;5052180;28;1442;-67
2023/08/29 09:00:07;;;;;;;;;;;21.60;69.60;;;;;;5042126;28;1319;-67
2023/08/29 09:02:33;;;;;;;;;;;21.70;69.70;;;;;;5053034;28;883;-67
2023/08/29 09:04:58;;;;;;;;;;;21.70;69.70;;;;;;5052768;28;923;-67
2023/08/29 09:07:24;;;;;;;;;;;21.70;69.70;;;;;;5053676;28;855;-66
2023/08/29 09:10:12;;;;;;;;;;;21.60;69.60;;;;;;5051695;28;1265;-67
2023/08/29 09:12:50;;;;;;;;;;;21.60;69.60;;;;;;5043146;28;1052;-67
2023/08/29 09:15:16;;;;;;;;;;;21.60;69.70;;;;;;5043244;28;1981;-67
2023/08/29 09:17:46;;;;;;;;;;;21.70;69.70;;;;;;5044887;28;864;-67
2023/08/29 09:20:11;;;;;;;;;;;21.70;69.70;;;;;;5051325;28;1305;-67
2023/08/29 09:22:39;;;;;;;;;;;21.60;69.60;;;;;;5052333;28;878;-67
2023/08/29 09:25:05;;;;;;;;;;;21.70;69.70;;;;;;5044395;28;832;-67
2023/08/29 09:27:37;;;;;;;;;;;21.60;69.60;;;;;;5045223;28;963;-68
2023/08/29 09:30:21;;;;;;;;;;;21.70;69.70;;;;;;5044678;28;1389;-67
2023/08/29 09:32:47;;;;;;;;;;;21.60;69.60;;;;;;5047034;28;857;-67
2023/08/29 09:35:16;;;;;;;;;;;21.60;69.60;;;;;;5050313;28;1909;-67
2023/08/29 09:37:44;;;;;;;;;;;21.70;69.70;;;;;;5045251;28;889;-68
2023/08/29 09:40:10;;;;;;;;;;;21.70;69.60;;;;;;5051504;28;1244;-67
2023/08/29 09:42:36;;;;;;;;;;;21.70;69.60;;;;;;5051631;28;1333;-67
2023/08/29 09:45:01;;;;;;;;;;;21.60;69.60;;;;;;5051258;28;823;-67
2023/08/29 09:47:27;;;;;;;;;;;21.70;69.70;;;;;;5044405;28;810;-67
2023/08/29 09:49:52;;;;;;;;;;;21.70;69.70;;;;;;5046481;28;1438;-67
2023/08/29 09:52:20;;;;;;;;;;;21.70;69.70;;;;;;5051409;28;861;-67
2023/08/29 09:54:49;;;;;;;;;;;21.60;69.60;;;;;;5043598;28;1918;-67
2023/08/29 09:57:15;;;;;;;;;;;21.70;69.70;;;;;;5050716;28;953;-65
2023/08/29 09:59:41;;;;;;;;;;;21.70;69.70;;;;;;5050608;28;1397;-65
2023/08/29 10:02:07;;;;;;;;;;;21.60;69.60;;;;;;5043011;28;884;-64
2023/08/29 10:04:36;;;;;;;;;;;21.60;69.60;;;;;;5049550;28;1041;-67
2023/08/29 10:07:02;;;;;;;;;;;21.60;69.60;;;;;;5044719;28;887;-67
2023/08/29 10:09:28;;;;;;;;;;;21.60;69.70;;;;;;5045020;28;1340;-67
2023/08/29 10:11:54;;;;;;;;;;;21.60;69.70;;;;;;5042940;28;887;-67
2023/08/29 10:14:20;;;;;;;;;;;21.60;69.60;;;;;;5042507;28;1926;-67
2023/08/29 10:16:46;;;;;;;;;;;21.60;69.70;;;;;;5050288;28;800;-67
2023/08/29 10:19:12;;;;;;;;;;;21.60;69.60;;;;;;5049614;28;1309;-67
2023/08/29 10:21:37;;;;;;;;;;;21.60;69.60;;;;;;5046189;28;936;-67
2023/08/29 10:24:03;;;;;;;;;;;21.60;69.60;;;;;;5049231;28;899;-68
2023/08/29 10:26:28;;;;;;;;;;;21.60;69.70;;;;;;5041181;28;880;-68
2023/08/29 10:28:54;;;;;;;;;;;21.60;69.70;;;;;;5050270;28;1286;-67
2023/08/29 10:31:19;;;;;;;;;;;21.60;69.70;;;;;;5050040;28;1200;-65
2023/08/29 10:33:46;;;;;;;;;;;21.60;69.70;;;;;;5043317;28;932;-65
2023/08/29 10:36:13;;;;;;;;;;;21.60;69.70;;;;;;5044370;28;1898;-65
2023/08/29 10:38:39;;;;;;;;;;;21.60;69.70;;;;;;5049423;28;941;-65
2023/08/29 10:41:07;;;;;;;;;;;21.60;69.70;;;;;;5050200;28;1315;-65
2023/08/29 10:43:34;;;;;;;;;;;21.60;69.70;;;;;;5043605;28;1377;-65
2023/08/29 10:46:12;;;;;;;;;;;21.60;69.70;;;;;;5042311;28;823;-65
2023/08/29 10:48:43;;;;;;;;;;;21.60;69.70;;;;;;5049819;28;1019;-65
2023/08/29 10:51:09;;;;;;;;;;;21.60;69.70;;;;;;5048426;28;1254;-65
2023/08/29 10:53:38;;;;;;;;;;;21.60;69.70;;;;;;5051152;28;927;-65
2023/08/29 10:56:04;;;;;;;;;;;21.60;69.70;;;;;;5049498;28;1902;-65
2023/08/29 10:58:32;;;;;;;;;;;21.60;69.70;;;;;;5049200;28;969;-65
2023/08/29 11:00:57;;;;;;;;;;;21.60;69.70;;;;;;5048715;28;1345;-65
2023/08/29 11:03:42;;;;;;;;;;;21.60;69.80;;;;;;5050163;28;971;-65
2023/08/29 11:06:07;;;;;;;;;;;21.60;69.80;;;;;;5050072;28;915;-65
2023/08/29 11:08:33;;;;;;;;;;;21.60;69.80;;;;;;5040088;28;797;-64
2023/08/29 11:11:14;;;;;;;;;;;21.60;69.70;;;;;;5049953;28;1272;-65
2023/08/29 11:13:58;;;;;;;;;;;21.60;69.80;;;;;;5050120;28;916;-65
2023/08/29 11:16:24;;;;;;;;;;;21.60;69.80;;;;;;5049940;28;1914;-65
2023/08/29 11:19:03;;;;;;;;;;;21.60;69.80;;;;;;5049404;28;1320;-68
2023/08/29 11:21:30;;;;;;;;;;;21.60;69.80;;;;;;5049385;28;867;-67
2023/08/29 11:23:56;;;;;;;;;;;21.60;69.80;;;;;;5038775;28;847;-67
2023/08/29 11:26:22;;;;;;;;;;;21.70;70.00;;;;;;5043263;28;839;-67
2023/08/29 11:28:47;;;;;;;;;;;21.70;69.80;;;;;;5047419;28;1360;-67
2023/08/29 11:31:13;;;;;;;;;;;21.60;69.70;;;;;;5049776;28;1188;-68
2023/08/29 11:33:38;;;;;;;;;;;21.70;69.70;;;;;;5049908;28;950;-67
2023/08/29 11:36:04;;;;;;;;;;;21.70;69.70;;;;;;5049521;28;1902;-67
2023/08/29 11:38:30;;;;;;;;;;;21.70;69.70;;;;;;5043476;28;854;-67
2023/08/29 11:40:56;;;;;;;;;;;21.70;69.70;;;;;;5042429;28;1291;-65
2023/08/29 11:43:23;;;;;;;;;;;21.60;69.70;;;;;;5049588;28;1263;-65
2023/08/29 11:45:51;;;;;;;;;;;21.60;69.70;;;;;;5049969;28;887;-65
2023/08/29 11:48:23;;;;;;;;;;;21.60;69.70;;;;;;5048615;28;866;-65
2023/08/29 11:50:50;;;;;;;;;;;21.60;69.70;;;;;;5048794;28;1237;-65
2023/08/29 11:53:36;;;;;;;;;;;21.70;69.80;;;;;;5049724;28;899;-65
2023/08/29 11:56:03;;;;;;;;;;;21.60;69.70;;;;;;5048648;28;1894;-65
2023/08/29 11:58:36;;;;;;;;;;;21.60;69.80;;;;;;5042219;28;1742;-65
2023/08/29 12:01:05;;;;;;;;;;;21.60;69.80;;;;;;5049047;28;1330;-65
2023/08/29 12:03:30;;;;;;;;;;;21.60;69.80;;;;;;5048130;28;2117;-65
2023/08/29 12:05:59;;;;;;;;;;;21.60;69.80;;;;;;5042645;28;1694;-65
2023/08/29 12:08:35;;;;;;;;;;;21.60;69.80;;;;;;5051146;28;1371;-65
2023/08/29 12:11:01;;;;;;;;;;;21.60;69.80;;;;;;5052368;28;1247;-65
2023/08/29 12:13:26;;;;;;;;;;;21.60;69.90;;;;;;5045868;28;1241;-65
2023/08/29 12:15:52;;;;;;;;;;;21.60;69.80;;;;;;5053165;28;1902;-65
2023/08/29 12:18:24;;;;;;;;;;;21.60;69.80;;;;;;5052624;28;1276;-65
2023/08/29 12:20:49;;;;;;;;;;;21.60;69.80;;;;;;5044960;28;1255;-65
2023/08/29 12:23:25;;;;;;;;;;;21.60;69.80;;;;;;5052904;28;946;-65
2023/08/29 12:25:51;;;;;;;;;;;21.60;69.80;;;;;;5052980;28;845;-65
2023/08/29 12:28:16;;;;;;;;;;;21.60;69.80;;;;;;5052092;28;1353;-65
2023/08/29 12:30:42;;;;;;;;;;;21.60;69.90;;;;;;5052508;28;1254;-65
2023/08/29 12:33:07;;;;;;;;;;;21.60;69.90;;;;;;5047295;28;857;-65
2023/08/29 12:35:33;;;;;;;;;;;21.60;69.90;;;;;;5053174;28;1898;-65
2023/08/29 12:37:58;;;;;;;;;;;21.60;69.90;;;;;;5052811;28;911;-65
2023/08/29 12:40:24;;;;;;;;;;;21.60;69.90;;;;;;5053618;28;1249;-65
2023/08/29 12:42:51;;;;;;;;;;;21.60;69.90;;;;;;5052241;28;1423;-65
2023/08/29 12:45:16;;;;;;;;;;;21.60;70.00;;;;;;5052864;28;947;-65
2023/08/29 12:47:42;;;;;;;;;;;21.60;69.90;;;;;;5052747;28;832;-65
2023/08/29 12:50:07;;;;;;;;;;;21.60;69.90;;;;;;5052205;28;1255;-65
2023/08/29 12:52:33;;;;;;;;;;;21.60;69.90;;;;;;5047123;28;895;-65
2023/08/29 12:54:58;;;;;;;;;;;21.60;69.90;;;;;;5052011;28;1898;-65
2023/08/29 12:57:24;;;;;;;;;;;21.60;70.00;;;;;;5052248;28;911;-65
2023/08/29 12:59:49;;;;;;;;;;;21.60;69.90;;;;;;5049838;28;1758;-65
2023/08/29 13:02:15;;;;;;;;;;;21.60;70.00;;;;;;5052399;28;839;-65
2023/08/29 13:04:41;;;;;;;;;;;21.60;70.00;;;;;;5051912;28;843;-65
2023/08/29 13:07:06;;;;;;;;;;;21.60;70.00;;;;;;5052289;28;836;-65
2023/08/29 13:09:31;;;;;;;;;;;21.60;70.00;;;;;;5051156;28;1228;-65
2023/08/29 13:11:57;;;;;;;;;;;21.60;70.00;;;;;;5051921;28;851;-65
2023/08/29 13:14:22;;;;;;;;;;;21.60;70.00;;;;;;5052159;28;1937;-65
2023/08/29 13:16:48;;;;;;;;;;;21.60;70.00;;;;;;5051924;28;868;-65
2023/08/29 13:19:13;;;;;;;;;;;21.60;70.00;;;;;;5050729;28;1272;-65
2023/08/29 13:21:39;;;;;;;;;;;21.60;70.00;;;;;;5051794;28;887;-65
2023/08/29 13:24:05;;;;;;;;;;;21.60;70.00;;;;;;5052056;28;915;-65
2023/08/29 13:26:30;;;;;;;;;;;21.60;70.00;;;;;;5051803;28;874;-65
2023/08/29 13:28:56;;;;;;;;;;;21.60;70.00;;;;;;5050964;28;1256;-64
2023/08/29 13:31:22;;;;;;;;;;;21.60;70.10;;;;;;5050974;28;1426;-65
2023/08/29 13:33:48;;;;;;;;;;;21.60;70.00;;;;;;5051770;28;1292;-65
2023/08/29 13:36:14;;;;;;;;;;;21.60;70.10;;;;;;5051623;28;1910;-64
2023/08/29 13:38:39;;;;;;;;;;;21.60;70.10;;;;;;5050703;28;1026;-65
2023/08/29 13:41:07;;;;;;;;;;;21.60;70.10;;;;;;5051614;28;1261;-65
2023/08/29 13:43:33;;;;;;;;;;;21.60;70.10;;;;;;5051071;28;1330;-65
2023/08/29 13:45:59;;;;;;;;;;;21.60;70.10;;;;;;5050991;28;1213;-65
2023/08/29 13:48:24;;;;;;;;;;;21.60;70.10;;;;;;5045838;28;1081;-65
2023/08/29 13:50:51;;;;;;;;;;;21.60;70.00;;;;;;5051544;28;1375;-65
2023/08/29 13:53:16;;;;;;;;;;;21.60;70.10;;;;;;5046313;28;1321;-67
2023/08/29 13:55:42;;;;;;;;;;;21.60;70.10;;;;;;5042502;28;1989;-68
2023/08/29 13:58:07;;;;;;;;;;;21.60;70.10;;;;;;5049575;28;1057;-67
2023/08/29 14:00:34;;;;;;;;;;;21.60;70.10;;;;;;5050551;28;1326;-67
2023/08/29 14:02:59;;;;;;;;;;;21.60;70.10;;;;;;5050462;28;855;-67
2023/08/29 14:05:25;;;;;;;;;;;21.60;70.10;;;;;;5050335;28;1022;-66
2023/08/29 14:07:50;;;;;;;;;;;21.60;70.10;;;;;;5050352;28;949;-66
2023/08/29 14:10:16;;;;;;;;;;;21.60;70.10;;;;;;5050907;28;1355;-66
2023/08/29 14:12:42;;;;;;;;;;;21.60;70.10;;;;;;5045318;28;946;-66
2023/08/29 14:15:07;;;;;;;;;;;21.60;70.00;;;;;;5051238;28;1902;-66
2023/08/29 14:17:33;;;;;;;;;;;21.60;70.00;;;;;;5050644;28;883;-66
2023/08/29 14:20:04;;;;;;;;;;;21.70;70.00;;;;;;5050143;28;1317;-66
2023/08/29 14:22:30;;;;;;;;;;;21.70;70.00;;;;;;5051244;28;879;-66
2023/08/29 14:24:55;;;;;;;;;;;21.60;70.00;;;;;;5051285;28;1077;-66
2023/08/29 14:27:21;;;;;;;;;;;21.60;70.00;;;;;;5051063;28;996;-65
2023/08/29 14:29:46;;;;;;;;;;;21.60;70.00;;;;;;5048962;28;1311;-66
2023/08/29 14:32:11;;;;;;;;;;;21.70;70.10;;;;;;5050510;28;793;-66